createdAt,value
2018-07-20T00:03:28.897Z,5.47
2018-07-20T00:08:32.136Z,4.53
2018-07-20T00:13:35.329Z,4.60
2018-07-20T00:18:42.495Z,5.00
2018-07-20T00:23:45.746Z,4.93
2018-07-20T00:28:48.967Z,4.67
2018-07-20T00:33:52.189Z,5.37
2018-07-20T00:38:55.754Z,4.83
2018-07-20T00:43:58.986Z,5.13
2018-07-20T00:49:02.214Z,5.30
2018-07-20T00:54:05.433Z,4.80
2018-07-20T00:59:08.779Z,4.80
2018-07-20T01:04:11.996Z,5.07
2018-07-20T01:09:15.199Z,5.10
2018-07-20T01:14:18.393Z,5.13
2018-07-20T01:19:21.591Z,5.13
2018-07-20T01:24:24.803Z,5.60
2018-07-20T01:29:28.013Z,4.77
2018-07-20T01:34:31.309Z,5.27
2018-07-20T01:39:34.534Z,5.47
2018-07-20T01:44:37.753Z,5.57
2018-07-20T01:49:40.968Z,5.33
2018-07-20T01:54:44.177Z,5.40
2018-07-20T01:59:47.346Z,5.53
2018-07-20T02:04:50.538Z,5.43
2018-07-20T02:09:53.682Z,5.47
2018-07-20T02:14:57.985Z,6.27
2018-07-20T02:20:01.147Z,6.23
2018-07-20T02:25:04.305Z,5.73
2018-07-20T02:30:07.604Z,5.70
2018-07-20T02:35:10.784Z,6.13
2018-07-20T02:40:13.955Z,7.03
2018-07-20T02:45:17.127Z,7.23
2018-07-20T02:50:20.262Z,7.63
2018-07-20T02:55:23.424Z,7.37
2018-07-20T03:00:26.575Z,8.07
2018-07-20T03:05:29.746Z,8.03
2018-07-20T03:10:32.942Z,7.77
2018-07-20T03:15:36.213Z,8.63
2018-07-20T03:20:39.377Z,8.77
2018-07-20T03:25:42.533Z,9.17
2018-07-20T03:30:45.682Z,8.57
2018-07-20T03:35:48.850Z,8.83
2018-07-20T03:40:52.653Z,9.77
2018-07-20T03:45:55.849Z,10.00
2018-07-20T03:50:59.041Z,9.87
2018-07-20T03:56:02.198Z,9.87
2018-07-20T04:01:05.409Z,9.17
2018-07-20T04:06:08.601Z,10.03
2018-07-20T04:11:11.795Z,10.07
2018-07-20T04:16:14.998Z,10.47
2018-07-20T04:21:18.194Z,10.50
2018-07-20T04:26:21.438Z,9.90
2018-07-20T04:31:24.683Z,9.70
2018-07-20T04:36:27.938Z,10.07
2018-07-20T04:41:31.122Z,9.07
2018-07-20T04:46:34.345Z,9.10
2018-07-20T04:51:37.550Z,9.70
2018-07-20T04:56:40.818Z,9.73
2018-07-20T05:01:43.993Z,9.53
2018-07-20T05:06:47.177Z,10.33
2018-07-20T05:11:51.442Z,10.47
2018-07-20T05:16:54.588Z,10.60
2018-07-20T05:21:57.762Z,10.90
2018-07-20T05:27:00.990Z,11.33
2018-07-20T05:32:04.197Z,11.37
2018-07-20T05:37:10.553Z,12.27
2018-07-20T05:42:13.838Z,11.70
2018-07-20T05:47:17.090Z,10.97
2018-07-20T05:52:20.307Z,10.77
2018-07-20T05:57:23.526Z,10.17
2018-07-20T06:02:26.751Z,9.70
2018-07-20T06:07:30.061Z,8.27
2018-07-20T06:12:33.313Z,8.03
2018-07-20T06:17:36.561Z,8.23
2018-07-20T06:22:39.778Z,7.47
2018-07-20T06:27:43.062Z,6.83
2018-07-20T06:32:46.456Z,5.80
2018-07-20T06:37:50.812Z,4.17
2018-07-20T06:42:54.532Z,4.20
2018-07-20T06:47:57.797Z,3.83
2018-07-20T06:53:01.097Z,3.47
2018-07-20T06:58:04.277Z,3.03
2018-07-20T07:03:07.455Z,3.67
2018-07-20T07:08:10.781Z,3.87
2018-07-20T07:13:14.238Z,3.50
2018-07-20T07:18:23.873Z,3.60
2018-07-20T07:23:27.200Z,3.60
2018-07-20T07:28:30.472Z,3.10
2018-07-20T07:33:33.742Z,3.10
2018-07-20T07:38:40.723Z,3.50
2018-07-20T07:43:43.891Z,3.20
2018-07-20T07:48:47.111Z,3.23
2018-07-20T07:53:50.279Z,3.50
2018-07-20T07:58:53.523Z,6.83
2018-07-20T08:03:56.762Z,3.37
2018-07-20T08:08:59.961Z,3.47
2018-07-20T08:14:04.507Z,3.10
2018-07-20T08:19:07.941Z,3.50
2018-07-20T08:24:11.106Z,3.37
2018-07-20T08:29:14.595Z,3.77
2018-07-20T08:34:17.765Z,3.33
2018-07-20T08:39:20.809Z,2.90
2018-07-20T08:44:23.988Z,3.33
2018-07-20T08:49:27.922Z,3.50
2018-07-20T08:54:31.097Z,2.83
2018-07-20T08:59:34.271Z,3.40
2018-07-20T09:04:37.522Z,3.10
2018-07-20T09:09:41.566Z,3.07
2018-07-20T09:14:44.785Z,3.83
2018-07-20T09:19:47.986Z,3.90
2018-07-20T09:24:51.194Z,3.93
2018-07-20T09:29:56.469Z,3.60
2018-07-20T09:34:59.698Z,3.33
2018-07-20T09:40:02.898Z,3.43
2018-07-20T09:45:06.307Z,3.33
2018-07-20T09:50:09.522Z,3.67
2018-07-20T09:55:14.920Z,3.73
2018-07-20T10:00:23.531Z,3.03
2018-07-20T10:05:26.825Z,3.63
2018-07-20T10:10:30.056Z,4.00
2018-07-20T10:15:33.430Z,3.80
2018-07-20T10:20:36.693Z,3.47
2018-07-20T10:25:42.177Z,3.90
2018-07-20T10:30:45.407Z,4.10
2018-07-20T10:35:49.654Z,4.07
2018-07-20T10:40:52.866Z,4.23
2018-07-20T10:45:56.126Z,4.37
2018-07-20T10:51:00.702Z,4.37
2018-07-20T10:56:03.892Z,3.63
2018-07-20T11:01:08.610Z,4.07
2018-07-20T11:06:12.014Z,3.80
2018-07-20T11:11:15.197Z,3.37
2018-07-20T11:16:18.401Z,4.33
2018-07-20T11:21:21.606Z,3.93
2018-07-20T11:26:24.821Z,4.60
2018-07-20T11:31:28.046Z,4.17
2018-07-20T11:36:31.274Z,4.10
2018-07-20T11:41:34.474Z,3.60
2018-07-20T11:46:37.689Z,4.50
2018-07-20T11:51:40.846Z,4.07
2018-07-20T11:56:44.118Z,3.90
2018-07-20T12:01:47.327Z,4.67
2018-07-20T12:06:51.655Z,4.40
2018-07-20T12:11:54.869Z,4.77
2018-07-20T12:16:58.106Z,4.23
2018-07-20T12:22:02.289Z,4.53
2018-07-20T12:27:05.706Z,4.30
2018-07-20T12:32:10.834Z,4.10
2018-07-20T12:37:14.039Z,4.07
2018-07-20T12:42:18.150Z,4.27
2018-07-20T12:47:24.109Z,4.50
2018-07-20T12:52:27.463Z,4.60
2018-07-20T12:57:30.742Z,4.33
2018-07-20T13:02:33.949Z,4.30
2018-07-20T13:07:37.327Z,4.03
2018-07-20T13:12:40.625Z,4.07
2018-07-20T13:17:43.892Z,4.80
2018-07-20T13:22:47.191Z,4.53
2018-07-20T13:27:50.562Z,4.40
2018-07-20T13:32:53.802Z,4.23
2018-07-20T13:37:57.126Z,4.90
2018-07-20T13:43:00.342Z,4.80
2018-07-20T13:48:03.655Z,4.33
2018-07-20T13:53:06.922Z,4.60
2018-07-20T13:58:10.126Z,5.20
2018-07-20T14:03:13.181Z,5.00
2018-07-20T14:08:16.475Z,5.30
2018-07-20T14:13:22.718Z,4.53
2018-07-20T14:18:25.869Z,3.57
2018-07-20T14:23:29.145Z,4.90
2018-07-20T14:28:32.320Z,3.93
2018-07-20T14:33:36.718Z,4.37
2018-07-20T14:38:39.903Z,4.23
2018-07-20T14:43:43.168Z,4.97
2018-07-20T14:48:47.479Z,3.83
2018-07-20T14:53:52.693Z,3.97
2018-07-20T14:58:56.000Z,3.77
2018-07-20T15:03:59.333Z,5.10
2018-07-20T15:09:02.550Z,5.63
2018-07-20T15:14:06.905Z,5.03
2018-07-20T15:19:10.216Z,5.23
2018-07-20T15:24:13.542Z,5.20
2018-07-20T15:29:16.798Z,5.37
2018-07-20T15:34:20.139Z,4.87
2018-07-20T15:39:23.412Z,4.47
2018-07-20T15:44:26.647Z,4.23
2018-07-20T15:49:29.865Z,4.17
2018-07-20T15:54:33.449Z,5.00
2018-07-20T15:59:36.618Z,4.50
2018-07-20T16:04:39.783Z,4.20
2018-07-20T16:09:43.311Z,4.90
2018-07-20T16:14:46.526Z,4.53
2018-07-20T16:19:49.701Z,4.90
2018-07-20T16:24:52.861Z,4.20
2018-07-20T16:29:56.047Z,4.30
2018-07-20T16:35:03.246Z,4.13
2018-07-20T16:40:06.450Z,4.10
2018-07-20T16:45:09.643Z,4.40
2018-07-20T16:50:12.886Z,4.17
2018-07-20T16:55:16.034Z,4.50
2018-07-20T17:00:19.221Z,3.83
2018-07-20T17:05:22.441Z,4.23
2018-07-20T17:10:25.744Z,3.80
2018-07-20T17:15:28.964Z,3.80
2018-07-20T17:20:32.234Z,4.10
2018-07-20T17:25:35.491Z,4.13
2018-07-20T17:30:38.790Z,4.50
2018-07-20T17:35:42.110Z,4.50
2018-07-20T17:40:45.390Z,4.30
2018-07-20T17:45:48.878Z,4.23
2018-07-20T17:50:52.122Z,4.43
2018-07-20T17:55:55.369Z,4.70
2018-07-20T18:00:58.554Z,6.23
2018-07-20T18:06:01.717Z,4.30
2018-07-20T18:11:04.914Z,6.23
2018-07-20T18:16:08.086Z,5.00
2018-07-20T18:21:11.330Z,5.00
2018-07-20T18:26:14.489Z,5.00
2018-07-20T18:31:17.650Z,4.80
2018-07-20T18:36:20.955Z,4.90
2018-07-20T18:41:24.298Z,4.30
2018-07-20T18:46:27.517Z,4.50
2018-07-20T18:51:35.039Z,4.13
2018-07-20T18:56:38.302Z,4.93
2018-07-20T19:01:42.694Z,4.77
2018-07-20T19:06:45.995Z,4.93
2018-07-20T19:11:49.329Z,5.23
2018-07-20T19:16:52.605Z,5.27
2018-07-20T19:21:55.874Z,5.67
2018-07-20T19:26:59.547Z,5.80
2018-07-20T19:32:02.820Z,5.50
2018-07-20T19:37:06.210Z,6.13
2018-07-20T19:42:09.540Z,6.13
2018-07-20T19:47:12.753Z,6.33
2018-07-20T19:52:16.023Z,6.53
2018-07-20T19:57:19.196Z,6.03
2018-07-20T20:02:22.427Z,6.10
2018-07-20T20:07:25.698Z,5.50
2018-07-20T20:12:28.917Z,6.07
2018-07-20T20:17:32.346Z,5.37
2018-07-20T20:22:35.646Z,5.77
2018-07-20T20:27:39.043Z,4.33
2018-07-20T20:32:42.374Z,5.03
2018-07-20T20:37:45.605Z,5.10
2018-07-20T20:42:48.913Z,5.17
2018-07-20T20:47:52.194Z,4.90
2018-07-20T20:52:56.554Z,5.03
2018-07-20T20:57:59.752Z,4.73
2018-07-20T21:03:02.959Z,5.07
2018-07-20T21:08:06.371Z,5.10
2018-07-20T21:13:09.625Z,4.60
2018-07-20T21:18:12.794Z,5.37
2018-07-20T21:23:16.002Z,4.90
2018-07-20T21:28:19.194Z,4.43
2018-07-20T21:33:22.421Z,5.17
2018-07-20T21:38:25.586Z,5.50
2018-07-20T21:43:28.633Z,5.90
2018-07-20T21:48:31.875Z,6.13
2018-07-20T21:53:35.142Z,6.17
2018-07-20T21:58:38.385Z,5.37
2018-07-20T22:03:41.615Z,6.33
2018-07-20T22:08:44.775Z,6.13
2018-07-20T22:13:51.424Z,5.27
2018-07-20T22:18:54.610Z,4.77
2018-07-20T22:23:57.802Z,5.13
2018-07-20T22:29:01.070Z,5.43
2018-07-20T22:34:04.375Z,5.30
2018-07-20T22:39:09.504Z,5.20
2018-07-20T22:44:20.084Z,5.13
2018-07-20T22:49:23.270Z,6.00
2018-07-20T22:54:26.425Z,5.60
2018-07-20T22:59:29.647Z,5.43
2018-07-20T23:04:32.866Z,5.70
2018-07-20T23:09:36.493Z,5.50
2018-07-20T23:14:39.730Z,5.07
2018-07-20T23:19:43.015Z,5.40
2018-07-20T23:24:46.355Z,4.90
2018-07-20T23:29:49.648Z,4.97
2018-07-20T23:34:52.889Z,6.13
2018-07-20T23:39:56.129Z,5.77
2018-07-20T23:44:59.326Z,5.10
2018-07-20T23:50:02.598Z,4.97
2018-07-20T23:55:06.621Z,4.83
